createdAt,value
2018-12-19T00:01:29.592Z,77.70
2018-12-19T00:03:58.427Z,78.39
2018-12-19T00:06:28.992Z,78.00
2018-12-19T00:09:03.144Z,77.42
2018-12-19T00:11:26.645Z,77.76
2018-12-19T00:13:55.425Z,77.68
2018-12-19T00:16:24.851Z,77.25
2018-12-19T00:18:53.684Z,78.11
2018-12-19T00:21:22.555Z,78.19
2018-12-19T00:23:51.344Z,78.32
2018-12-19T00:26:20.147Z,77.73
2018-12-19T00:28:49.875Z,77.70
2018-12-19T00:31:18.716Z,77.75
2018-12-19T00:33:47.518Z,77.52
2018-12-19T00:36:16.296Z,76.95
2018-12-19T00:38:45.086Z,77.61
2018-12-19T00:41:13.876Z,77.42
2018-12-19T00:43:43.581Z,78.10
2018-12-19T00:46:12.390Z,77.49
2018-12-19T00:48:41.666Z,77.89
2018-12-19T00:51:10.446Z,77.21
2018-12-19T00:53:39.247Z,77.20
2018-12-19T00:56:08.034Z,77.01
2018-12-19T00:58:36.844Z,76.97
2018-12-19T01:01:05.645Z,77.18
2018-12-19T01:03:34.440Z,76.60
2018-12-19T01:06:03.986Z,77.21
2018-12-19T01:08:36.295Z,76.48
2018-12-19T01:11:05.097Z,77.23
2018-12-19T01:13:33.890Z,76.43
2018-12-19T01:16:02.683Z,77.08
2018-12-19T01:18:31.506Z,76.26
2018-12-19T01:21:00.276Z,76.08
2018-12-19T01:23:29.125Z,76.67
2018-12-19T01:25:57.899Z,76.65
2018-12-19T01:28:26.695Z,76.71
2018-12-19T01:30:55.476Z,76.99
2018-12-19T01:33:24.323Z,76.72
2018-12-19T01:35:53.116Z,77.10
2018-12-19T01:38:21.980Z,76.86
2018-12-19T01:40:50.762Z,76.08
2018-12-19T01:43:19.563Z,76.64
2018-12-19T01:45:48.356Z,76.85
2018-12-19T01:48:17.152Z,76.05
2018-12-19T01:50:45.964Z,76.38
2018-12-19T01:53:14.791Z,76.35
2018-12-19T01:55:43.595Z,76.21
2018-12-19T01:58:12.396Z,76.07
2018-12-19T02:00:41.214Z,75.58
2018-12-19T02:03:09.983Z,75.80
2018-12-19T02:05:38.853Z,75.79
2018-12-19T02:08:07.628Z,75.93
2018-12-19T02:10:36.429Z,76.29
2018-12-19T02:13:05.219Z,75.25
2018-12-19T02:15:34.048Z,75.57
2018-12-19T02:18:02.839Z,75.70
2018-12-19T02:20:31.661Z,75.71
2018-12-19T02:23:00.446Z,75.47
2018-12-19T02:25:29.249Z,74.79
2018-12-19T02:27:58.077Z,75.31
2018-12-19T02:30:27.403Z,75.96
2018-12-19T02:32:56.203Z,75.38
2018-12-19T02:35:24.974Z,76.03
2018-12-19T02:37:53.750Z,75.60
2018-12-19T02:40:23.415Z,75.30
2018-12-19T02:42:52.844Z,75.64
2018-12-19T02:45:21.693Z,75.56
2018-12-19T02:47:50.477Z,75.59
2018-12-19T02:50:19.261Z,75.11
2018-12-19T02:52:49.708Z,75.39
2018-12-19T02:55:18.532Z,74.95
2018-12-19T02:57:47.307Z,75.67
2018-12-19T03:00:16.086Z,75.56
2018-12-19T03:02:45.844Z,75.43
2018-12-19T03:05:14.630Z,75.27
2018-12-19T03:07:43.402Z,75.79
2018-12-19T03:10:12.219Z,75.83
2018-12-19T03:12:41.017Z,75.62
2018-12-19T03:15:09.807Z,75.47
2018-12-19T03:17:38.576Z,75.69
2018-12-19T03:20:07.372Z,75.43
2018-12-19T03:22:37.603Z,75.34
2018-12-19T03:25:06.362Z,75.32
2018-12-19T03:27:35.234Z,75.13
2018-12-19T03:30:04.733Z,75.78
2018-12-19T03:32:33.519Z,75.81
2018-12-19T03:35:02.312Z,75.73
2018-12-19T03:37:31.104Z,76.16
2018-12-19T03:39:59.879Z,76.19
2018-12-19T03:42:28.691Z,75.80
2018-12-19T03:44:57.477Z,76.04
2018-12-19T03:47:26.345Z,75.82
2018-12-19T03:49:56.050Z,75.87
2018-12-19T03:52:24.820Z,76.31
2018-12-19T03:54:54.601Z,76.64
2018-12-19T03:57:23.403Z,76.40
2018-12-19T03:59:52.188Z,76.38
2018-12-19T04:02:21.038Z,77.15
2018-12-19T04:04:49.884Z,76.81
2018-12-19T04:07:18.668Z,76.80
2018-12-19T04:09:48.448Z,77.43
2018-12-19T04:12:17.238Z,77.55
2018-12-19T04:14:46.007Z,77.15
2018-12-19T04:17:14.798Z,78.15
2018-12-19T04:19:43.594Z,78.44
2018-12-19T04:22:12.871Z,78.12
2018-12-19T04:24:41.660Z,78.19
2018-12-19T04:27:10.496Z,78.79
2018-12-19T04:29:39.379Z,79.02
2018-12-19T04:32:08.171Z,78.63
2018-12-19T04:34:36.955Z,78.58
2018-12-19T04:37:05.726Z,78.85
2018-12-19T04:39:35.044Z,79.13
2018-12-19T04:42:04.518Z,79.39
2018-12-19T04:44:33.708Z,79.67
2018-12-19T04:47:02.513Z,79.30
2018-12-19T04:49:31.618Z,79.89
2018-12-19T04:52:00.419Z,80.07
2018-12-19T04:54:29.285Z,79.64
2018-12-19T04:56:58.053Z,79.66
2018-12-19T04:59:26.836Z,79.78
2018-12-19T05:01:55.627Z,80.11
2018-12-19T05:04:24.415Z,80.62
2018-12-19T05:06:53.207Z,80.75
2018-12-19T05:09:22.014Z,81.54
2018-12-19T05:11:50.819Z,81.39
2018-12-19T05:14:21.350Z,82.23
2018-12-19T05:16:50.115Z,82.46
2018-12-19T05:19:18.907Z,82.40
2018-12-19T05:21:47.720Z,82.76
2018-12-19T05:24:16.653Z,82.36
2018-12-19T05:26:45.443Z,83.19
2018-12-19T05:29:14.903Z,83.29
2018-12-19T05:31:44.303Z,83.31
2018-12-19T05:34:13.083Z,83.05
2018-12-19T05:36:41.957Z,83.76
2018-12-19T05:39:11.711Z,84.26
2018-12-19T05:41:40.922Z,84.40
2018-12-19T05:44:09.698Z,84.63
2018-12-19T05:46:38.519Z,84.55
2018-12-19T05:49:07.310Z,85.23
2018-12-19T05:51:36.140Z,85.28
2018-12-19T05:54:04.949Z,85.45
2018-12-19T05:56:33.760Z,85.34
2018-12-19T05:59:02.554Z,85.56
2018-12-19T06:01:31.338Z,85.46
2018-12-19T06:04:00.141Z,85.88
2018-12-19T06:06:29.682Z,85.75
2018-12-19T06:08:58.440Z,85.94
2018-12-19T06:11:27.320Z,85.66
2018-12-19T06:13:56.121Z,86.11
2018-12-19T06:16:27.915Z,85.66
2018-12-19T06:18:56.818Z,85.91
2018-12-19T06:21:25.963Z,86.42
2018-12-19T06:23:54.738Z,86.23
2018-12-19T06:26:23.549Z,86.59
2018-12-19T06:28:57.895Z,86.26
2018-12-19T06:31:26.683Z,86.04
2018-12-19T06:33:55.482Z,86.75
2018-12-19T06:36:24.328Z,86.87
2018-12-19T06:38:53.222Z,86.61
2018-12-19T06:41:22.011Z,87.18
2018-12-19T06:43:51.865Z,86.59
2018-12-19T06:46:20.664Z,86.67
2018-12-19T06:48:49.444Z,86.99
2018-12-19T06:51:19.054Z,86.89
2018-12-19T06:53:47.225Z,87.62
2018-12-19T06:56:16.006Z,87.20
2018-12-19T06:58:44.795Z,87.46
2018-12-19T07:01:13.578Z,87.18
2018-12-19T07:03:42.380Z,86.83
2018-12-19T07:06:11.157Z,87.48
2018-12-19T07:08:41.401Z,87.18
2018-12-19T07:11:08.739Z,87.18
2018-12-19T07:13:37.520Z,87.49
2018-12-19T07:16:06.320Z,87.75
2018-12-19T07:18:35.118Z,87.64
2018-12-19T07:21:03.885Z,87.28
2018-12-19T07:23:32.688Z,87.48
2018-12-19T07:26:01.466Z,87.49
2018-12-19T07:28:30.242Z,87.70
2018-12-19T07:30:59.045Z,87.61
2018-12-19T07:33:27.843Z,87.71
2018-12-19T07:35:56.676Z,87.81
2018-12-19T07:38:25.477Z,87.85
2018-12-19T07:40:54.285Z,87.96
2018-12-19T07:43:23.119Z,88.03
2018-12-19T07:45:51.918Z,87.87
2018-12-19T07:48:20.720Z,88.15
2018-12-19T07:50:49.524Z,88.06
2018-12-19T07:53:18.369Z,88.14
2018-12-19T07:55:47.166Z,88.45
2018-12-19T07:58:16.047Z,88.17
2018-12-19T08:00:44.883Z,88.05
2018-12-19T08:03:13.732Z,88.04
2018-12-19T08:05:42.513Z,87.66
2018-12-19T08:08:11.307Z,88.21
2018-12-19T08:10:40.101Z,88.07
2018-12-19T08:13:08.988Z,88.22
2018-12-19T08:15:37.788Z,88.37
2018-12-19T08:18:06.585Z,88.25
2018-12-19T08:20:35.377Z,88.46
2018-12-19T08:23:05.026Z,88.10
2018-12-19T08:25:33.895Z,88.19
2018-12-19T08:28:02.727Z,88.14
2018-12-19T08:30:31.500Z,88.09
2018-12-19T08:33:00.299Z,87.90
2018-12-19T08:35:29.093Z,88.43
2018-12-19T08:37:57.882Z,87.96
2018-12-19T08:40:26.731Z,88.12
2018-12-19T08:42:55.540Z,88.05
2018-12-19T08:45:24.368Z,88.10
2018-12-19T08:47:53.199Z,88.11
2018-12-19T08:50:21.975Z,88.26
2018-12-19T08:52:50.824Z,88.26
2018-12-19T08:55:19.607Z,87.66
2018-12-19T08:57:48.448Z,87.47
2018-12-19T09:00:17.348Z,87.61
2018-12-19T09:02:46.271Z,87.45
2018-12-19T09:05:15.178Z,87.35
2018-12-19T09:07:43.967Z,87.15
2018-12-19T09:10:12.805Z,86.81
2018-12-19T09:12:41.648Z,87.23
2018-12-19T09:15:10.437Z,86.72
2018-12-19T09:17:39.238Z,86.91
2018-12-19T09:20:08.035Z,86.80
2018-12-19T09:22:36.835Z,87.02
2018-12-19T09:25:05.652Z,86.90
2018-12-19T09:27:34.474Z,86.85
2018-12-19T09:30:03.315Z,86.75
2018-12-19T09:32:32.205Z,86.39
2018-12-19T09:35:01.059Z,86.34
2018-12-19T09:37:30.356Z,86.38
2018-12-19T09:39:59.188Z,86.34
2018-12-19T09:42:28.008Z,86.03
2018-12-19T09:44:56.866Z,86.16
2018-12-19T09:47:25.675Z,85.67
2018-12-19T09:49:54.475Z,85.21
2018-12-19T09:52:23.349Z,85.44
2018-12-19T09:54:52.295Z,85.07
2018-12-19T09:57:21.006Z,84.72
2018-12-19T09:59:49.857Z,84.55
2018-12-19T10:02:18.630Z,84.54
2018-12-19T10:04:47.431Z,84.35
2018-12-19T10:07:16.229Z,83.90
2018-12-19T10:09:45.063Z,83.68
2018-12-19T10:12:13.873Z,83.76
2018-12-19T10:14:42.667Z,83.51
2018-12-19T10:17:11.464Z,83.34
2018-12-19T10:19:40.256Z,83.12
2018-12-19T10:22:09.027Z,83.10
2018-12-19T10:24:43.204Z,82.97
2018-12-19T10:27:16.202Z,83.39
2018-12-19T10:29:45.008Z,83.22
2018-12-19T10:32:13.792Z,82.85
2018-12-19T10:34:43.955Z,82.59
2018-12-19T10:37:12.778Z,82.70
2018-12-19T10:39:41.569Z,82.21
2018-12-19T10:42:10.357Z,82.24
2018-12-19T10:44:39.130Z,82.50
2018-12-19T10:47:07.930Z,82.33
2018-12-19T10:49:36.711Z,82.35
2018-12-19T10:52:05.497Z,82.14
2018-12-19T10:54:34.301Z,82.45
2018-12-19T10:57:03.176Z,82.69
2018-12-19T10:59:32.020Z,82.15
2018-12-19T11:02:00.872Z,81.82
2018-12-19T11:04:29.690Z,82.01
2018-12-19T11:06:58.481Z,81.65
2018-12-19T11:09:27.268Z,80.95
2018-12-19T11:11:56.132Z,80.85
2018-12-19T11:14:24.920Z,80.68
2018-12-19T11:16:53.714Z,79.98
2018-12-19T11:19:22.559Z,79.94
2018-12-19T11:21:51.415Z,79.39
2018-12-19T11:24:20.191Z,79.12
2018-12-19T11:26:49.015Z,78.71
2018-12-19T11:29:17.807Z,77.83
2018-12-19T11:31:46.619Z,77.89
2018-12-19T11:34:15.406Z,76.91
2018-12-19T11:36:44.216Z,76.81
2018-12-19T11:39:13.007Z,76.59
2018-12-19T11:41:41.822Z,76.48
2018-12-19T11:44:10.705Z,76.17
2018-12-19T11:46:39.502Z,76.08
2018-12-19T11:49:08.312Z,76.53
2018-12-19T11:51:37.130Z,76.46
2018-12-19T11:54:05.971Z,76.17
2018-12-19T11:56:34.746Z,76.51
2018-12-19T11:59:03.552Z,76.60
2018-12-19T12:01:32.342Z,76.60
2018-12-19T12:04:01.167Z,76.59
2018-12-19T12:06:29.989Z,76.44
2018-12-19T12:08:58.769Z,76.64
2018-12-19T12:11:27.564Z,76.62
2018-12-19T12:13:56.444Z,76.59
2018-12-19T12:16:25.301Z,76.57
2018-12-19T12:18:54.105Z,76.15
2018-12-19T12:21:23.012Z,76.33
2018-12-19T12:23:51.875Z,76.52
2018-12-19T12:26:21.696Z,76.56
2018-12-19T12:28:50.501Z,76.47
2018-12-19T12:31:19.284Z,76.50
2018-12-19T12:33:48.087Z,76.83
2018-12-19T12:36:16.927Z,76.46
2018-12-19T12:38:45.756Z,76.59
2018-12-19T12:41:14.626Z,76.73
2018-12-19T12:43:43.444Z,76.83
2018-12-19T12:46:12.256Z,77.27
2018-12-19T12:48:41.055Z,77.20
2018-12-19T12:51:09.915Z,76.78
2018-12-19T12:53:38.756Z,76.90
2018-12-19T12:56:07.580Z,76.80
2018-12-19T12:58:36.403Z,76.79
2018-12-19T13:01:05.191Z,76.85
2018-12-19T13:03:34.006Z,76.97
2018-12-19T13:06:02.794Z,77.06
2018-12-19T13:08:31.622Z,76.62
2018-12-19T13:11:00.374Z,76.38
2018-12-19T13:13:29.165Z,76.85
2018-12-19T13:15:57.951Z,76.58
2018-12-19T13:18:26.834Z,77.04
2018-12-19T13:20:55.639Z,77.15
2018-12-19T13:23:24.435Z,76.75
2018-12-19T13:25:53.261Z,76.67
2018-12-19T13:28:23.155Z,77.05
2018-12-19T13:30:51.922Z,76.90
2018-12-19T13:33:20.809Z,76.94
2018-12-19T13:35:49.595Z,76.25
2018-12-19T13:38:18.495Z,77.04
2018-12-19T13:40:47.306Z,76.92
2018-12-19T13:43:16.187Z,76.95
2018-12-19T13:45:44.991Z,76.59
2018-12-19T13:48:13.801Z,77.13
2018-12-19T13:50:42.611Z,77.17
2018-12-19T13:53:11.473Z,77.01
2018-12-19T13:55:40.246Z,76.79
2018-12-19T13:58:09.050Z,77.15
2018-12-19T14:00:37.929Z,77.00
2018-12-19T14:03:06.719Z,76.96
2018-12-19T14:05:35.507Z,77.35
2018-12-19T14:08:04.296Z,76.77
2018-12-19T14:10:33.083Z,77.12
2018-12-19T14:13:01.876Z,77.35
2018-12-19T14:15:30.740Z,77.23
2018-12-19T14:17:59.532Z,77.33
2018-12-19T14:20:28.324Z,77.04
2018-12-19T14:22:57.122Z,77.31
2018-12-19T14:25:25.971Z,77.21
2018-12-19T14:27:54.847Z,77.39
2018-12-19T14:30:23.723Z,77.43
2018-12-19T14:32:52.511Z,77.54
2018-12-19T14:35:21.320Z,77.69
2018-12-19T14:37:50.140Z,77.46
2018-12-19T14:40:19.027Z,77.14
2018-12-19T14:42:47.891Z,77.16
2018-12-19T14:45:16.790Z,77.41
2018-12-19T14:47:45.624Z,77.38
2018-12-19T14:50:14.480Z,77.71
2018-12-19T14:52:43.268Z,77.49
2018-12-19T14:55:12.114Z,78.21
2018-12-19T14:57:40.886Z,77.94
2018-12-19T15:00:10.534Z,77.83
2018-12-19T15:02:39.346Z,77.96
2018-12-19T15:05:08.218Z,78.22
2018-12-19T15:07:37.023Z,77.93
2018-12-19T15:10:07.438Z,78.55
2018-12-19T15:12:36.256Z,78.54
2018-12-19T15:15:06.398Z,78.63
2018-12-19T15:17:35.193Z,78.44
2018-12-19T15:20:04.087Z,78.55
2018-12-19T15:22:32.888Z,78.53
2018-12-19T15:25:01.818Z,78.57
2018-12-19T15:27:30.604Z,78.70
2018-12-19T15:29:59.462Z,78.79
2018-12-19T15:32:28.281Z,78.89
2018-12-19T15:34:57.092Z,79.06
2018-12-19T15:37:25.912Z,78.88
2018-12-19T15:39:54.709Z,79.17
2018-12-19T15:42:23.562Z,79.25
2018-12-19T15:44:52.383Z,79.36
2018-12-19T15:47:21.189Z,79.17
2018-12-19T15:49:50.031Z,79.16
2018-12-19T15:52:18.828Z,79.50
2018-12-19T15:54:47.641Z,79.65
2018-12-19T15:57:16.463Z,79.74
2018-12-19T15:59:45.359Z,79.62
2018-12-19T16:02:14.155Z,79.91
2018-12-19T16:04:42.965Z,79.40
2018-12-19T16:07:11.779Z,79.63
2018-12-19T16:09:40.603Z,79.90
2018-12-19T16:12:09.405Z,79.81
2018-12-19T16:14:38.233Z,79.91
2018-12-19T16:17:07.063Z,79.94
2018-12-19T16:19:35.949Z,79.96
2018-12-19T16:22:04.900Z,79.68
2018-12-19T16:24:33.678Z,79.71
2018-12-19T16:27:02.517Z,79.69
2018-12-19T16:29:31.338Z,79.76
2018-12-19T16:32:00.276Z,80.08
2018-12-19T16:34:30.831Z,79.97
2018-12-19T16:37:00.885Z,79.92
2018-12-19T16:39:29.673Z,79.79
2018-12-19T16:42:03.539Z,79.78
2018-12-19T16:44:33.440Z,80.01
2018-12-19T16:47:02.223Z,79.82
2018-12-19T16:49:31.050Z,80.08
2018-12-19T16:52:00.948Z,80.24
2018-12-19T16:54:29.790Z,80.21
2018-12-19T16:56:58.708Z,80.05
2018-12-19T16:59:28.673Z,80.35
2018-12-19T17:01:57.603Z,80.41
2018-12-19T17:04:26.549Z,80.49
2018-12-19T17:06:55.411Z,80.59
2018-12-19T17:09:24.340Z,80.62
2018-12-19T17:11:53.094Z,80.47
2018-12-19T17:14:22.575Z,80.36
2018-12-19T17:16:51.383Z,80.10
2018-12-19T17:19:20.279Z,80.33
2018-12-19T17:21:49.151Z,80.70
2018-12-19T17:24:18.237Z,81.14
2018-12-19T17:26:47.026Z,81.47
2018-12-19T17:29:15.840Z,81.47
2018-12-19T17:31:44.630Z,81.62
2018-12-19T17:34:13.436Z,82.02
2018-12-19T17:36:42.230Z,81.64
2018-12-19T17:39:11.038Z,82.05
2018-12-19T17:41:39.883Z,81.83
2018-12-19T17:44:08.672Z,81.73
2018-12-19T17:46:37.504Z,81.96
2018-12-19T17:49:06.388Z,81.99
2018-12-19T17:51:35.207Z,82.24
2018-12-19T17:54:04.018Z,82.49
2018-12-19T17:56:39.656Z,82.63
2018-12-19T17:59:08.451Z,82.92
2018-12-19T18:01:37.233Z,82.46
2018-12-19T18:04:06.023Z,82.79
2018-12-19T18:06:35.335Z,82.96
2018-12-19T18:09:05.289Z,82.81
2018-12-19T18:11:34.140Z,82.98
2018-12-19T18:14:02.967Z,83.09
2018-12-19T18:16:31.753Z,82.94
2018-12-19T18:19:00.539Z,83.09
2018-12-19T18:21:29.392Z,83.17
2018-12-19T18:23:58.200Z,83.06
2018-12-19T18:26:27.082Z,83.23
2018-12-19T18:28:55.959Z,83.07
2018-12-19T18:31:24.875Z,83.35
2018-12-19T18:33:53.674Z,83.51
2018-12-19T18:36:22.470Z,83.67
2018-12-19T18:38:51.260Z,83.17
2018-12-19T18:41:20.066Z,83.25
2018-12-19T18:43:48.872Z,83.32
2018-12-19T18:46:17.660Z,83.37
2018-12-19T18:48:46.460Z,83.45
2018-12-19T18:51:15.238Z,83.29
2018-12-19T18:53:44.710Z,83.61
2018-12-19T18:56:13.520Z,83.38
2018-12-19T18:58:42.329Z,83.40
2018-12-19T19:01:11.155Z,83.45
2018-12-19T19:03:39.938Z,83.26
2018-12-19T19:06:08.815Z,83.20
2018-12-19T19:08:37.588Z,83.34
2018-12-19T19:11:06.337Z,83.29
2018-12-19T19:13:35.137Z,83.07
2018-12-19T19:16:04.048Z,83.04
2018-12-19T19:18:32.876Z,83.12
2018-12-19T19:21:01.687Z,82.76
2018-12-19T19:23:30.499Z,83.11
2018-12-19T19:25:59.292Z,83.33
2018-12-19T19:28:28.103Z,83.28
2018-12-19T19:30:56.916Z,83.33
2018-12-19T19:33:25.730Z,83.65
2018-12-19T19:35:54.519Z,84.22
2018-12-19T19:38:23.399Z,84.01
2018-12-19T19:40:52.253Z,83.85
2018-12-19T19:43:26.501Z,83.57
2018-12-19T19:45:49.824Z,83.74
2018-12-19T19:48:18.637Z,83.73
2018-12-19T19:50:47.501Z,83.92
2018-12-19T19:53:16.343Z,84.19
2018-12-19T19:55:45.151Z,84.56
2018-12-19T19:58:13.956Z,84.38
2018-12-19T20:00:42.763Z,84.27
2018-12-19T20:03:11.547Z,84.79
2018-12-19T20:05:40.397Z,84.92
2018-12-19T20:08:10.985Z,84.90
2018-12-19T20:10:39.878Z,85.00
2018-12-19T20:13:08.686Z,84.84
2018-12-19T20:15:38.264Z,84.77
2018-12-19T20:18:09.136Z,85.06
2018-12-19T20:20:37.915Z,85.04
2018-12-19T20:23:06.721Z,85.02
2018-12-19T20:25:35.530Z,85.50
2018-12-19T20:28:04.363Z,85.62
2018-12-19T20:30:33.172Z,85.44
2018-12-19T20:33:01.984Z,85.55
2018-12-19T20:35:30.777Z,85.70
2018-12-19T20:37:59.564Z,85.64
2018-12-19T20:40:28.367Z,85.78
2018-12-19T20:42:57.216Z,85.65
2018-12-19T20:45:26.006Z,85.65
2018-12-19T20:47:56.584Z,85.98
2018-12-19T20:50:25.376Z,85.33
2018-12-19T20:52:54.174Z,85.78
2018-12-19T20:55:23.011Z,85.60
2018-12-19T20:57:51.795Z,85.57
2018-12-19T21:00:20.630Z,85.24
2018-12-19T21:02:49.386Z,85.83
2018-12-19T21:05:18.171Z,85.96
2018-12-19T21:07:46.939Z,86.16
2018-12-19T21:10:15.727Z,86.01
2018-12-19T21:12:44.515Z,85.57
2018-12-19T21:15:14.123Z,86.10
2018-12-19T21:17:48.395Z,85.91
2018-12-19T21:20:17.187Z,86.25
2018-12-19T21:22:45.971Z,86.24
2018-12-19T21:25:14.751Z,85.81
2018-12-19T21:27:43.542Z,86.04
2018-12-19T21:30:12.331Z,86.16
2018-12-19T21:32:41.205Z,85.83
2018-12-19T21:35:10.015Z,86.61
2018-12-19T21:37:38.845Z,86.58
2018-12-19T21:40:07.657Z,86.16
2018-12-19T21:42:36.403Z,86.34
2018-12-19T21:45:05.297Z,86.42
2018-12-19T21:47:34.118Z,86.37
2018-12-19T21:50:02.906Z,86.33
2018-12-19T21:52:31.683Z,86.42
2018-12-19T21:55:01.110Z,86.42
2018-12-19T21:57:29.954Z,86.33
2018-12-19T21:59:58.810Z,86.35
2018-12-19T22:02:27.557Z,86.06
2018-12-19T22:04:56.299Z,86.28
2018-12-19T22:07:25.176Z,85.97
2018-12-19T22:09:54.047Z,86.87
2018-12-19T22:12:22.811Z,86.77
2018-12-19T22:14:51.680Z,86.78
2018-12-19T22:17:25.694Z,86.63
2018-12-19T22:19:54.448Z,86.52
2018-12-19T22:22:23.382Z,87.08
2018-12-19T22:24:52.134Z,86.71
2018-12-19T22:27:20.900Z,87.07
2018-12-19T22:29:49.695Z,87.12
2018-12-19T22:32:18.464Z,86.73
2018-12-19T22:34:47.296Z,86.52
2018-12-19T22:37:17.273Z,87.61
2018-12-19T22:39:45.993Z,87.10
2018-12-19T22:42:15.490Z,87.27
2018-12-19T22:44:44.262Z,87.48
2018-12-19T22:47:13.113Z,87.15
2018-12-19T22:49:41.862Z,87.24
2018-12-19T22:52:10.655Z,87.19
2018-12-19T22:54:39.456Z,87.18
2018-12-19T22:57:08.992Z,87.71
2018-12-19T22:59:37.788Z,87.25
2018-12-19T23:02:12.752Z,86.98
2018-12-19T23:04:41.528Z,86.95
2018-12-19T23:07:10.341Z,87.63
2018-12-19T23:09:39.176Z,87.45
2018-12-19T23:12:07.987Z,87.85
2018-12-19T23:14:36.763Z,87.57
2018-12-19T23:17:16.638Z,87.38
2018-12-19T23:19:51.204Z,87.48
2018-12-19T23:22:25.693Z,87.09
2018-12-19T23:25:00.928Z,86.84
2018-12-19T23:27:30.299Z,87.34
2018-12-19T23:29:59.411Z,87.48
2018-12-19T23:32:29.226Z,87.83
2018-12-19T23:34:57.991Z,88.18
2018-12-19T23:37:26.751Z,88.20
2018-12-19T23:39:56.211Z,87.99
2018-12-19T23:42:25.112Z,87.84
2018-12-19T23:44:53.862Z,87.94
2018-12-19T23:47:22.817Z,88.84
2018-12-19T23:49:51.532Z,88.77
2018-12-19T23:52:20.328Z,88.25
2018-12-19T23:54:49.892Z,89.14
2018-12-19T23:57:18.727Z,88.56
2018-12-19T23:59:47.515Z,88.54
